sensor_id;sensor_type;location;lat;lon;timestamp;P1;durP1;ratioP1;P2;durP2;ratioP2
9208;SDS011;4639;48.862;9.188;2022-08-19T00:00:33;14.80;;;13.27;;
9208;SDS011;4639;48.862;9.188;2022-08-19T00:03:00;15.73;;;14.18;;
9208;SDS011;4639;48.862;9.188;2022-08-19T00:05:25;14.80;;;13.38;;
9208;SDS011;4639;48.862;9.188;2022-08-19T00:07:51;15.57;;;14.02;;
9208;SDS011;4639;48.862;9.188;2022-08-19T00:10:17;14.52;;;13.23;;
9208;SDS011;4639;48.862;9.188;2022-08-19T00:12:44;17.98;;;13.63;;
9208;SDS011;4639;48.862;9.188;2022-08-19T00:15:12;15.20;;;13.07;;
9208;SDS011;4639;48.862;9.188;2022-08-19T00:17:41;15.05;;;13.35;;
9208;SDS011;4639;48.862;9.188;2022-08-19T00:20:08;15.00;;;13.43;;
9208;SDS011;4639;48.862;9.188;2022-08-19T00:22:38;14.80;;;13.40;;
9208;SDS011;4639;48.862;9.188;2022-08-19T00:25:06;14.20;;;12.77;;
9208;SDS011;4639;48.862;9.188;2022-08-19T00:27:33;13.77;;;12.57;;
9208;SDS011;4639;48.862;9.188;2022-08-19T00:29:58;13.45;;;12.15;;
9208;SDS011;4639;48.862;9.188;2022-08-19T00:32:25;13.27;;;12.07;;
9208;SDS011;4639;48.862;9.188;2022-08-19T00:34:51;15.55;;;14.05;;
9208;SDS011;4639;48.862;9.188;2022-08-19T00:37:22;14.30;;;12.90;;
9208;SDS011;4639;48.862;9.188;2022-08-19T00:39:49;14.48;;;13.07;;
9208;SDS011;4639;48.862;9.188;2022-08-19T00:42:16;15.70;;;12.55;;
9208;SDS011;4639;48.862;9.188;2022-08-19T00:44:43;14.32;;;13.02;;
9208;SDS011;4639;48.862;9.188;2022-08-19T00:47:09;17.48;;;13.23;;
9208;SDS011;4639;48.862;9.188;2022-08-19T00:49:43;15.27;;;13.70;;
9208;SDS011;4639;48.862;9.188;2022-08-19T00:52:16;14.90;;;13.50;;
9208;SDS011;4639;48.862;9.188;2022-08-19T00:54:46;16.50;;;13.55;;
9208;SDS011;4639;48.862;9.188;2022-08-19T00:57:15;15.10;;;13.65;;
9208;SDS011;4639;48.862;9.188;2022-08-19T00:59:44;14.70;;;13.20;;
9208;SDS011;4639;48.862;9.188;2022-08-19T01:02:12;14.20;;;12.70;;
9208;SDS011;4639;48.862;9.188;2022-08-19T01:04:40;15.60;;;13.98;;
9208;SDS011;4639;48.862;9.188;2022-08-19T01:07:05;30.52;;;12.55;;
9208;SDS011;4639;48.862;9.188;2022-08-19T01:09:32;14.95;;;13.45;;
9208;SDS011;4639;48.862;9.188;2022-08-19T01:11:58;16.33;;;14.32;;
9208;SDS011;4639;48.862;9.188;2022-08-19T01:14:23;14.77;;;13.27;;
9208;SDS011;4639;48.862;9.188;2022-08-19T01:16:50;16.00;;;13.45;;
9208;SDS011;4639;48.862;9.188;2022-08-19T01:19:29;15.68;;;13.57;;
9208;SDS011;4639;48.862;9.188;2022-08-19T01:22:01;15.20;;;13.68;;
9208;SDS011;4639;48.862;9.188;2022-08-19T01:24:30;14.23;;;12.90;;
9208;SDS011;4639;48.862;9.188;2022-08-19T01:26:56;14.10;;;12.70;;
9208;SDS011;4639;48.862;9.188;2022-08-19T01:29:22;14.95;;;13.55;;
9208;SDS011;4639;48.862;9.188;2022-08-19T01:31:48;14.77;;;13.32;;
9208;SDS011;4639;48.862;9.188;2022-08-19T01:34:17;15.00;;;13.60;;
9208;SDS011;4639;48.862;9.188;2022-08-19T01:36:44;15.00;;;13.45;;
9208;SDS011;4639;48.862;9.188;2022-08-19T01:39:13;17.55;;;13.60;;
9208;SDS011;4639;48.862;9.188;2022-08-19T01:41:41;15.52;;;13.95;;
9208;SDS011;4639;48.862;9.188;2022-08-19T01:44:07;16.50;;;14.75;;
9208;SDS011;4639;48.862;9.188;2022-08-19T01:46:34;16.33;;;14.63;;
9208;SDS011;4639;48.862;9.188;2022-08-19T01:49:01;16.35;;;14.77;;
9208;SDS011;4639;48.862;9.188;2022-08-19T01:51:28;17.45;;;15.18;;
9208;SDS011;4639;48.862;9.188;2022-08-19T01:53:55;16.92;;;15.07;;
9208;SDS011;4639;48.862;9.188;2022-08-19T01:56:22;17.10;;;15.50;;
9208;SDS011;4639;48.862;9.188;2022-08-19T01:58:54;17.17;;;15.30;;
9208;SDS011;4639;48.862;9.188;2022-08-19T02:01:22;16.17;;;14.70;;
9208;SDS011;4639;48.862;9.188;2022-08-19T02:03:48;16.30;;;14.68;;
9208;SDS011;4639;48.862;9.188;2022-08-19T02:06:14;18.33;;;15.68;;
9208;SDS011;4639;48.862;9.188;2022-08-19T02:08:41;17.65;;;15.27;;
9208;SDS011;4639;48.862;9.188;2022-08-19T02:11:10;17.50;;;15.73;;
9208;SDS011;4639;48.862;9.188;2022-08-19T02:13:47;18.50;;;16.70;;
9208;SDS011;4639;48.862;9.188;2022-08-19T02:16:14;18.35;;;16.10;;
9208;SDS011;4639;48.862;9.188;2022-08-19T02:18:41;18.38;;;16.48;;
9208;SDS011;4639;48.862;9.188;2022-08-19T02:21:06;18.10;;;16.08;;
9208;SDS011;4639;48.862;9.188;2022-08-19T02:23:32;17.85;;;16.10;;
9208;SDS011;4639;48.862;9.188;2022-08-19T02:25:58;19.52;;;17.15;;
9208;SDS011;4639;48.862;9.188;2022-08-19T02:28:23;19.48;;;16.70;;
9208;SDS011;4639;48.862;9.188;2022-08-19T02:30:49;18.63;;;16.63;;
9208;SDS011;4639;48.862;9.188;2022-08-19T02:33:15;18.80;;;16.48;;
9208;SDS011;4639;48.862;9.188;2022-08-19T02:35:42;20.65;;;17.65;;
9208;SDS011;4639;48.862;9.188;2022-08-19T02:38:08;18.83;;;16.85;;
9208;SDS011;4639;48.862;9.188;2022-08-19T02:40:54;19.80;;;17.65;;
9208;SDS011;4639;48.862;9.188;2022-08-19T02:43:31;19.63;;;17.52;;
9208;SDS011;4639;48.862;9.188;2022-08-19T02:46:01;20.02;;;17.92;;
9208;SDS011;4639;48.862;9.188;2022-08-19T02:48:27;20.77;;;18.67;;
9208;SDS011;4639;48.862;9.188;2022-08-19T02:50:53;20.25;;;18.27;;
9208;SDS011;4639;48.862;9.188;2022-08-19T02:53:23;20.33;;;18.30;;
9208;SDS011;4639;48.862;9.188;2022-08-19T02:55:52;20.80;;;18.70;;
9208;SDS011;4639;48.862;9.188;2022-08-19T02:58:18;20.48;;;18.15;;
9208;SDS011;4639;48.862;9.188;2022-08-19T03:00:46;20.63;;;18.20;;
9208;SDS011;4639;48.862;9.188;2022-08-19T03:03:14;21.60;;;19.30;;
9208;SDS011;4639;48.862;9.188;2022-08-19T03:05:40;22.45;;;19.83;;
9208;SDS011;4639;48.862;9.188;2022-08-19T03:08:07;21.88;;;19.48;;
9208;SDS011;4639;48.862;9.188;2022-08-19T03:10:43;21.30;;;19.02;;
9208;SDS011;4639;48.862;9.188;2022-08-19T03:13:16;21.27;;;19.05;;
9208;SDS011;4639;48.862;9.188;2022-08-19T03:15:43;20.42;;;18.33;;
9208;SDS011;4639;48.862;9.188;2022-08-19T03:18:11;22.70;;;19.95;;
9208;SDS011;4639;48.862;9.188;2022-08-19T03:20:43;22.35;;;20.02;;
9208;SDS011;4639;48.862;9.188;2022-08-19T03:23:10;22.35;;;19.70;;
9208;SDS011;4639;48.862;9.188;2022-08-19T03:25:41;22.10;;;19.80;;
9208;SDS011;4639;48.862;9.188;2022-08-19T03:28:09;23.85;;;21.42;;
9208;SDS011;4639;48.862;9.188;2022-08-19T03:30:35;22.83;;;20.52;;
9208;SDS011;4639;48.862;9.188;2022-08-19T03:33:01;22.48;;;20.27;;
9208;SDS011;4639;48.862;9.188;2022-08-19T03:35:27;22.52;;;20.25;;
9208;SDS011;4639;48.862;9.188;2022-08-19T03:37:52;22.38;;;20.15;;
9208;SDS011;4639;48.862;9.188;2022-08-19T03:40:18;23.40;;;20.90;;
9208;SDS011;4639;48.862;9.188;2022-08-19T03:42:44;24.00;;;21.65;;
9208;SDS011;4639;48.862;9.188;2022-08-19T03:45:11;23.48;;;21.08;;
9208;SDS011;4639;48.862;9.188;2022-08-19T03:47:36;22.50;;;20.30;;
9208;SDS011;4639;48.862;9.188;2022-08-19T03:50:03;24.23;;;21.73;;
9208;SDS011;4639;48.862;9.188;2022-08-19T03:52:29;22.67;;;20.30;;
9208;SDS011;4639;48.862;9.188;2022-08-19T03:54:55;22.30;;;20.00;;
9208;SDS011;4639;48.862;9.188;2022-08-19T03:57:21;22.38;;;20.15;;
9208;SDS011;4639;48.862;9.188;2022-08-19T03:59:46;23.42;;;20.90;;
9208;SDS011;4639;48.862;9.188;2022-08-19T04:02:12;23.23;;;21.02;;
9208;SDS011;4639;48.862;9.188;2022-08-19T04:04:39;23.00;;;20.70;;
9208;SDS011;4639;48.862;9.188;2022-08-19T04:07:08;23.05;;;20.75;;
9208;SDS011;4639;48.862;9.188;2022-08-19T04:09:34;25.08;;;22.10;;
9208;SDS011;4639;48.862;9.188;2022-08-19T04:12:01;22.65;;;20.45;;
9208;SDS011;4639;48.862;9.188;2022-08-19T04:14:30;22.98;;;20.77;;
9208;SDS011;4639;48.862;9.188;2022-08-19T04:16:57;24.58;;;22.23;;
9208;SDS011;4639;48.862;9.188;2022-08-19T04:19:23;24.00;;;21.60;;
9208;SDS011;4639;48.862;9.188;2022-08-19T04:21:50;23.58;;;21.25;;
9208;SDS011;4639;48.862;9.188;2022-08-19T04:24:17;24.30;;;21.80;;
9208;SDS011;4639;48.862;9.188;2022-08-19T04:26:44;23.77;;;21.30;;
9208;SDS011;4639;48.862;9.188;2022-08-19T04:29:14;27.20;;;22.15;;
9208;SDS011;4639;48.862;9.188;2022-08-19T04:31:42;23.45;;;21.00;;
9208;SDS011;4639;48.862;9.188;2022-08-19T04:34:09;24.80;;;22.33;;
9208;SDS011;4639;48.862;9.188;2022-08-19T04:36:37;25.13;;;22.63;;
9208;SDS011;4639;48.862;9.188;2022-08-19T04:39:06;25.20;;;22.70;;
9208;SDS011;4639;48.862;9.188;2022-08-19T04:41:34;25.60;;;23.15;;
9208;SDS011;4639;48.862;9.188;2022-08-19T04:44:19;25.92;;;23.52;;
9208;SDS011;4639;48.862;9.188;2022-08-19T04:46:46;25.23;;;22.55;;
9208;SDS011;4639;48.862;9.188;2022-08-19T04:49:13;23.17;;;20.77;;
9208;SDS011;4639;48.862;9.188;2022-08-19T04:51:41;24.85;;;22.20;;
9208;SDS011;4639;48.862;9.188;2022-08-19T04:54:07;24.65;;;22.27;;
9208;SDS011;4639;48.862;9.188;2022-08-19T04:56:33;24.48;;;22.13;;
9208;SDS011;4639;48.862;9.188;2022-08-19T04:58:59;25.23;;;22.27;;
9208;SDS011;4639;48.862;9.188;2022-08-19T05:01:29;24.58;;;22.02;;
9208;SDS011;4639;48.862;9.188;2022-08-19T05:03:57;26.42;;;21.73;;
9208;SDS011;4639;48.862;9.188;2022-08-19T05:06:25;24.23;;;21.83;;
9208;SDS011;4639;48.862;9.188;2022-08-19T05:08:52;24.25;;;21.88;;
9208;SDS011;4639;48.862;9.188;2022-08-19T05:11:22;24.63;;;22.05;;
9208;SDS011;4639;48.862;9.188;2022-08-19T05:13:50;25.75;;;22.83;;
9208;SDS011;4639;48.862;9.188;2022-08-19T05:16:17;24.65;;;22.30;;
9208;SDS011;4639;48.862;9.188;2022-08-19T05:18:44;25.10;;;22.52;;
9208;SDS011;4639;48.862;9.188;2022-08-19T05:21:29;24.95;;;22.08;;
9208;SDS011;4639;48.862;9.188;2022-08-19T05:24:14;25.05;;;22.65;;
9208;SDS011;4639;48.862;9.188;2022-08-19T05:26:41;24.58;;;22.15;;
9208;SDS011;4639;48.862;9.188;2022-08-19T05:29:11;25.33;;;22.45;;
9208;SDS011;4639;48.862;9.188;2022-08-19T05:31:37;23.98;;;21.67;;
9208;SDS011;4639;48.862;9.188;2022-08-19T05:34:03;25.85;;;23.25;;
9208;SDS011;4639;48.862;9.188;2022-08-19T05:36:33;30.00;;;22.42;;
9208;SDS011;4639;48.862;9.188;2022-08-19T05:39:02;26.67;;;23.48;;
9208;SDS011;4639;48.862;9.188;2022-08-19T05:41:29;25.55;;;22.05;;
9208;SDS011;4639;48.862;9.188;2022-08-19T05:44:00;25.70;;;22.67;;
9208;SDS011;4639;48.862;9.188;2022-08-19T05:46:28;25.52;;;22.58;;
9208;SDS011;4639;48.862;9.188;2022-08-19T05:48:54;25.70;;;23.13;;
9208;SDS011;4639;48.862;9.188;2022-08-19T05:51:21;26.13;;;23.33;;
9208;SDS011;4639;48.862;9.188;2022-08-19T05:53:48;26.67;;;23.85;;
9208;SDS011;4639;48.862;9.188;2022-08-19T05:56:15;24.77;;;22.35;;
9208;SDS011;4639;48.862;9.188;2022-08-19T05:58:41;27.63;;;23.30;;
9208;SDS011;4639;48.862;9.188;2022-08-19T06:01:10;24.92;;;22.33;;
9208;SDS011;4639;48.862;9.188;2022-08-19T06:03:37;25.60;;;22.92;;
9208;SDS011;4639;48.862;9.188;2022-08-19T06:06:04;27.02;;;22.77;;
9208;SDS011;4639;48.862;9.188;2022-08-19T06:08:31;24.13;;;21.73;;
9208;SDS011;4639;48.862;9.188;2022-08-19T06:10:57;24.30;;;21.80;;
9208;SDS011;4639;48.862;9.188;2022-08-19T06:13:36;27.48;;;22.52;;
9208;SDS011;4639;48.862;9.188;2022-08-19T06:16:01;25.88;;;23.20;;
9208;SDS011;4639;48.862;9.188;2022-08-19T06:18:27;24.38;;;21.45;;
9208;SDS011;4639;48.862;9.188;2022-08-19T06:20:52;26.50;;;22.83;;
9208;SDS011;4639;48.862;9.188;2022-08-19T06:23:18;25.67;;;21.67;;
9208;SDS011;4639;48.862;9.188;2022-08-19T06:25:45;25.33;;;22.67;;
9208;SDS011;4639;48.862;9.188;2022-08-19T06:28:10;25.40;;;22.85;;
9208;SDS011;4639;48.862;9.188;2022-08-19T06:30:36;25.65;;;22.92;;
9208;SDS011;4639;48.862;9.188;2022-08-19T06:33:02;24.08;;;21.88;;
9208;SDS011;4639;48.862;9.188;2022-08-19T06:35:27;25.08;;;22.55;;
9208;SDS011;4639;48.862;9.188;2022-08-19T06:37:54;23.38;;;21.17;;
9208;SDS011;4639;48.862;9.188;2022-08-19T06:40:20;22.88;;;20.63;;
9208;SDS011;4639;48.862;9.188;2022-08-19T06:42:45;23.80;;;21.45;;
9208;SDS011;4639;48.862;9.188;2022-08-19T06:45:11;25.00;;;22.40;;
9208;SDS011;4639;48.862;9.188;2022-08-19T06:47:37;28.10;;;22.85;;
9208;SDS011;4639;48.862;9.188;2022-08-19T06:50:02;25.30;;;22.83;;
9208;SDS011;4639;48.862;9.188;2022-08-19T06:52:33;25.63;;;23.05;;
9208;SDS011;4639;48.862;9.188;2022-08-19T06:55:00;25.20;;;22.80;;
9208;SDS011;4639;48.862;9.188;2022-08-19T06:57:26;25.38;;;22.88;;
9208;SDS011;4639;48.862;9.188;2022-08-19T06:59:53;25.92;;;23.35;;
9208;SDS011;4639;48.862;9.188;2022-08-19T07:02:21;25.65;;;23.20;;
9208;SDS011;4639;48.862;9.188;2022-08-19T07:04:51;24.55;;;22.30;;
9208;SDS011;4639;48.862;9.188;2022-08-19T07:07:17;25.48;;;22.88;;
9208;SDS011;4639;48.862;9.188;2022-08-19T07:09:43;24.15;;;21.85;;
9208;SDS011;4639;48.862;9.188;2022-08-19T07:12:10;25.15;;;22.45;;
9208;SDS011;4639;48.862;9.188;2022-08-19T07:14:40;25.63;;;23.13;;
9208;SDS011;4639;48.862;9.188;2022-08-19T07:17:07;23.92;;;21.73;;
9208;SDS011;4639;48.862;9.188;2022-08-19T07:19:34;25.02;;;22.63;;
9208;SDS011;4639;48.862;9.188;2022-08-19T07:22:02;23.70;;;21.33;;
9208;SDS011;4639;48.862;9.188;2022-08-19T07:24:30;23.17;;;20.88;;
9208;SDS011;4639;48.862;9.188;2022-08-19T07:26:56;23.40;;;21.20;;
9208;SDS011;4639;48.862;9.188;2022-08-19T07:29:25;23.30;;;21.00;;
9208;SDS011;4639;48.862;9.188;2022-08-19T07:31:52;21.30;;;19.33;;
9208;SDS011;4639;48.862;9.188;2022-08-19T07:34:21;21.85;;;19.60;;
9208;SDS011;4639;48.862;9.188;2022-08-19T07:36:47;22.05;;;19.80;;
9208;SDS011;4639;48.862;9.188;2022-08-19T07:39:15;21.73;;;19.42;;
9208;SDS011;4639;48.862;9.188;2022-08-19T07:41:44;21.27;;;19.27;;
9208;SDS011;4639;48.862;9.188;2022-08-19T07:44:11;21.73;;;19.60;;
9208;SDS011;4639;48.862;9.188;2022-08-19T07:46:39;20.70;;;18.70;;
9208;SDS011;4639;48.862;9.188;2022-08-19T07:49:06;20.85;;;18.88;;
9208;SDS011;4639;48.862;9.188;2022-08-19T07:51:34;21.27;;;19.17;;
9208;SDS011;4639;48.862;9.188;2022-08-19T07:53:59;21.27;;;18.52;;
9208;SDS011;4639;48.862;9.188;2022-08-19T07:56:25;20.63;;;18.58;;
9208;SDS011;4639;48.862;9.188;2022-08-19T07:58:51;22.63;;;17.90;;
9208;SDS011;4639;48.862;9.188;2022-08-19T08:01:19;20.45;;;18.38;;
9208;SDS011;4639;48.862;9.188;2022-08-19T08:03:48;18.70;;;16.90;;
9208;SDS011;4639;48.862;9.188;2022-08-19T08:06:33;20.60;;;17.95;;
9208;SDS011;4639;48.862;9.188;2022-08-19T08:09:22;20.35;;;18.38;;
9208;SDS011;4639;48.862;9.188;2022-08-19T08:14:26;20.27;;;18.05;;
9208;SDS011;4639;48.862;9.188;2022-08-19T08:16:53;21.00;;;18.80;;
9208;SDS011;4639;48.862;9.188;2022-08-19T08:19:20;20.02;;;18.02;;
9208;SDS011;4639;48.862;9.188;2022-08-19T08:21:48;19.05;;;17.10;;
9208;SDS011;4639;48.862;9.188;2022-08-19T08:24:15;18.10;;;16.38;;
9208;SDS011;4639;48.862;9.188;2022-08-19T08:26:41;21.85;;;17.67;;
9208;SDS011;4639;48.862;9.188;2022-08-19T08:29:08;21.13;;;18.88;;
9208;SDS011;4639;48.862;9.188;2022-08-19T08:31:39;22.05;;;18.52;;
9208;SDS011;4639;48.862;9.188;2022-08-19T08:34:07;19.63;;;17.58;;
9208;SDS011;4639;48.862;9.188;2022-08-19T08:36:36;20.88;;;18.45;;
9208;SDS011;4639;48.862;9.188;2022-08-19T08:39:06;21.83;;;18.20;;
9208;SDS011;4639;48.862;9.188;2022-08-19T08:41:35;19.95;;;17.98;;
9208;SDS011;4639;48.862;9.188;2022-08-19T08:44:23;19.83;;;17.83;;
9208;SDS011;4639;48.862;9.188;2022-08-19T08:46:58;19.67;;;17.50;;
9208;SDS011;4639;48.862;9.188;2022-08-19T08:54:54;18.52;;;15.82;;
9208;SDS011;4639;48.862;9.188;2022-08-19T08:57:27;18.45;;;16.58;;
9208;SDS011;4639;48.862;9.188;2022-08-19T08:59:54;17.10;;;15.48;;
9208;SDS011;4639;48.862;9.188;2022-08-19T09:02:22;18.02;;;16.33;;
9208;SDS011;4639;48.862;9.188;2022-08-19T09:04:50;17.45;;;15.85;;
9208;SDS011;4639;48.862;9.188;2022-08-19T09:10:28;18.92;;;16.88;;
9208;SDS011;4639;48.862;9.188;2022-08-19T09:15:42;17.45;;;15.68;;
9208;SDS011;4639;48.862;9.188;2022-08-19T09:18:18;17.77;;;15.68;;
9208;SDS011;4639;48.862;9.188;2022-08-19T09:20:44;16.95;;;15.18;;
9208;SDS011;4639;48.862;9.188;2022-08-19T09:23:12;21.05;;;16.48;;
9208;SDS011;4639;48.862;9.188;2022-08-19T09:25:38;16.90;;;14.88;;
9208;SDS011;4639;48.862;9.188;2022-08-19T09:28:05;16.65;;;14.95;;
9208;SDS011;4639;48.862;9.188;2022-08-19T09:30:32;16.20;;;14.63;;
9208;SDS011;4639;48.862;9.188;2022-08-19T09:33:04;16.70;;;14.52;;
9208;SDS011;4639;48.862;9.188;2022-08-19T09:35:30;16.58;;;15.00;;
9208;SDS011;4639;48.862;9.188;2022-08-19T09:37:56;15.05;;;13.55;;
9208;SDS011;4639;48.862;9.188;2022-08-19T09:40:22;18.55;;;14.48;;
9208;SDS011;4639;48.862;9.188;2022-08-19T09:42:48;15.70;;;14.13;;
9208;SDS011;4639;48.862;9.188;2022-08-19T09:45:15;15.73;;;12.98;;
9208;SDS011;4639;48.862;9.188;2022-08-19T09:47:41;14.63;;;12.77;;
9208;SDS011;4639;48.862;9.188;2022-08-19T09:50:09;15.25;;;13.63;;
9208;SDS011;4639;48.862;9.188;2022-08-19T09:52:36;17.58;;;13.32;;
9208;SDS011;4639;48.862;9.188;2022-08-19T09:55:06;14.65;;;13.13;;
9208;SDS011;4639;48.862;9.188;2022-08-19T09:57:34;17.60;;;12.43;;
9208;SDS011;4639;48.862;9.188;2022-08-19T10:00:00;13.82;;;12.40;;
9208;SDS011;4639;48.862;9.188;2022-08-19T10:02:26;13.07;;;11.75;;
9208;SDS011;4639;48.862;9.188;2022-08-19T10:04:52;16.42;;;12.10;;
9208;SDS011;4639;48.862;9.188;2022-08-19T10:07:38;17.67;;;12.88;;
9208;SDS011;4639;48.862;9.188;2022-08-19T10:10:04;16.92;;;13.10;;
9208;SDS011;4639;48.862;9.188;2022-08-19T10:12:31;17.38;;;12.60;;
9208;SDS011;4639;48.862;9.188;2022-08-19T10:14:58;13.68;;;11.98;;
9208;SDS011;4639;48.862;9.188;2022-08-19T10:17:24;15.32;;;12.25;;
9208;SDS011;4639;48.862;9.188;2022-08-19T10:19:50;12.60;;;11.40;;
9208;SDS011;4639;48.862;9.188;2022-08-19T10:22:17;16.77;;;11.27;;
9208;SDS011;4639;48.862;9.188;2022-08-19T10:24:43;13.70;;;11.10;;
9208;SDS011;4639;48.862;9.188;2022-08-19T10:27:10;13.93;;;11.32;;
9208;SDS011;4639;48.862;9.188;2022-08-19T10:29:37;13.57;;;11.43;;
9208;SDS011;4639;48.862;9.188;2022-08-19T10:32:04;15.85;;;11.10;;
9208;SDS011;4639;48.862;9.188;2022-08-19T10:34:32;16.98;;;10.82;;
9208;SDS011;4639;48.862;9.188;2022-08-19T10:36:58;13.13;;;10.35;;
9208;SDS011;4639;48.862;9.188;2022-08-19T10:39:28;11.88;;;9.90;;
9208;SDS011;4639;48.862;9.188;2022-08-19T10:41:55;10.30;;;9.20;;
9208;SDS011;4639;48.862;9.188;2022-08-19T10:44:22;11.15;;;9.30;;
9208;SDS011;4639;48.862;9.188;2022-08-19T10:46:49;10.43;;;8.93;;
9208;SDS011;4639;48.862;9.188;2022-08-19T10:49:15;9.05;;;8.15;;
9208;SDS011;4639;48.862;9.188;2022-08-19T10:51:41;10.90;;;7.88;;
9208;SDS011;4639;48.862;9.188;2022-08-19T10:54:26;8.57;;;7.75;;
9208;SDS011;4639;48.862;9.188;2022-08-19T10:57:12;8.90;;;6.88;;
9208;SDS011;4639;48.862;9.188;2022-08-19T10:59:39;9.55;;;7.22;;
9208;SDS011;4639;48.862;9.188;2022-08-19T11:02:06;9.13;;;6.35;;
9208;SDS011;4639;48.862;9.188;2022-08-19T11:04:35;7.95;;;6.43;;
9208;SDS011;4639;48.862;9.188;2022-08-19T11:07:02;8.88;;;6.50;;
9208;SDS011;4639;48.862;9.188;2022-08-19T11:09:28;7.35;;;6.65;;
9208;SDS011;4639;48.862;9.188;2022-08-19T11:11:54;9.23;;;6.50;;
9208;SDS011;4639;48.862;9.188;2022-08-19T11:14:21;8.55;;;6.50;;
9208;SDS011;4639;48.862;9.188;2022-08-19T11:16:49;9.05;;;6.85;;
9208;SDS011;4639;48.862;9.188;2022-08-19T11:19:15;8.45;;;6.85;;
9208;SDS011;4639;48.862;9.188;2022-08-19T11:21:44;13.05;;;7.25;;
9208;SDS011;4639;48.862;9.188;2022-08-19T11:24:13;9.02;;;6.70;;
9208;SDS011;4639;48.862;9.188;2022-08-19T11:26:42;7.75;;;6.75;;
9208;SDS011;4639;48.862;9.188;2022-08-19T11:29:08;8.02;;;6.53;;
9208;SDS011;4639;48.862;9.188;2022-08-19T11:31:36;8.13;;;6.55;;
9208;SDS011;4639;48.862;9.188;2022-08-19T11:34:05;7.25;;;6.32;;
9208;SDS011;4639;48.862;9.188;2022-08-19T11:36:33;9.85;;;6.78;;
9208;SDS011;4639;48.862;9.188;2022-08-19T11:39:00;8.68;;;6.75;;
9208;SDS011;4639;48.862;9.188;2022-08-19T11:41:29;8.00;;;6.47;;
9208;SDS011;4639;48.862;9.188;2022-08-19T11:43:54;6.82;;;6.13;;
9208;SDS011;4639;48.862;9.188;2022-08-19T11:46:21;8.40;;;6.65;;
9208;SDS011;4639;48.862;9.188;2022-08-19T11:48:48;7.18;;;6.45;;
9208;SDS011;4639;48.862;9.188;2022-08-19T11:51:16;10.85;;;6.03;;
9208;SDS011;4639;48.862;9.188;2022-08-19T11:53:44;7.25;;;6.65;;
9208;SDS011;4639;48.862;9.188;2022-08-19T11:56:10;7.50;;;6.70;;
9208;SDS011;4639;48.862;9.188;2022-08-19T11:58:39;12.35;;;7.40;;
9208;SDS011;4639;48.862;9.188;2022-08-19T12:01:10;8.85;;;7.65;;
9208;SDS011;4639;48.862;9.188;2022-08-19T12:03:37;8.88;;;8.07;;
9208;SDS011;4639;48.862;9.188;2022-08-19T12:06:07;13.02;;;7.90;;
9208;SDS011;4639;48.862;9.188;2022-08-19T12:08:34;9.13;;;8.25;;
9208;SDS011;4639;48.862;9.188;2022-08-19T12:11:00;8.30;;;7.38;;
9208;SDS011;4639;48.862;9.188;2022-08-19T12:13:27;9.05;;;7.63;;
9208;SDS011;4639;48.862;9.188;2022-08-19T12:15:53;9.85;;;7.93;;
9208;SDS011;4639;48.862;9.188;2022-08-19T12:18:19;9.25;;;8.10;;
9208;SDS011;4639;48.862;9.188;2022-08-19T12:20:45;8.40;;;7.07;;
9208;SDS011;4639;48.862;9.188;2022-08-19T12:23:12;8.65;;;7.70;;
9208;SDS011;4639;48.862;9.188;2022-08-19T12:25:43;9.95;;;7.45;;
9208;SDS011;4639;48.862;9.188;2022-08-19T12:28:17;11.50;;;7.35;;
9208;SDS011;4639;48.862;9.188;2022-08-19T12:30:47;8.05;;;7.25;;
9208;SDS011;4639;48.862;9.188;2022-08-19T12:33:16;7.75;;;6.85;;
9208;SDS011;4639;48.862;9.188;2022-08-19T12:35:43;7.80;;;7.00;;
9208;SDS011;4639;48.862;9.188;2022-08-19T12:38:10;8.02;;;6.95;;
9208;SDS011;4639;48.862;9.188;2022-08-19T12:40:36;7.25;;;6.53;;
9208;SDS011;4639;48.862;9.188;2022-08-19T12:43:02;8.73;;;6.57;;
9208;SDS011;4639;48.862;9.188;2022-08-19T12:45:28;10.43;;;6.72;;
9208;SDS011;4639;48.862;9.188;2022-08-19T12:47:53;7.15;;;6.45;;
9208;SDS011;4639;48.862;9.188;2022-08-19T12:50:19;9.55;;;6.35;;
9208;SDS011;4639;48.862;9.188;2022-08-19T12:52:46;8.70;;;6.00;;
9208;SDS011;4639;48.862;9.188;2022-08-19T12:55:12;7.95;;;5.70;;
9208;SDS011;4639;48.862;9.188;2022-08-19T12:57:39;9.85;;;6.20;;
9208;SDS011;4639;48.862;9.188;2022-08-19T13:00:06;6.07;;;5.57;;
9208;SDS011;4639;48.862;9.188;2022-08-19T13:02:51;6.55;;;5.63;;
9208;SDS011;4639;48.862;9.188;2022-08-19T13:05:18;7.55;;;5.93;;
9208;SDS011;4639;48.862;9.188;2022-08-19T13:07:47;5.90;;;5.40;;
9208;SDS011;4639;48.862;9.188;2022-08-19T13:10:13;6.25;;;5.40;;
9208;SDS011;4639;48.862;9.188;2022-08-19T13:12:42;6.35;;;5.40;;
9208;SDS011;4639;48.862;9.188;2022-08-19T13:15:08;6.18;;;5.28;;
9208;SDS011;4639;48.862;9.188;2022-08-19T13:17:34;8.13;;;5.18;;
9208;SDS011;4639;48.862;9.188;2022-08-19T13:20:01;7.20;;;5.18;;
9208;SDS011;4639;48.862;9.188;2022-08-19T13:22:27;12.07;;;5.05;;
9208;SDS011;4639;48.862;9.188;2022-08-19T13:24:53;7.20;;;5.45;;
9208;SDS011;4639;48.862;9.188;2022-08-19T13:27:18;15.68;;;13.98;;
9208;SDS011;4639;48.862;9.188;2022-08-19T13:29:44;15.45;;;13.95;;
9208;SDS011;4639;48.862;9.188;2022-08-19T13:32:28;16.52;;;14.35;;
9208;SDS011;4639;48.862;9.188;2022-08-19T13:35:14;17.77;;;15.05;;
9208;SDS011;4639;48.862;9.188;2022-08-19T13:37:40;20.20;;;18.10;;
9208;SDS011;4639;48.862;9.188;2022-08-19T13:40:06;21.05;;;18.83;;
9208;SDS011;4639;48.862;9.188;2022-08-19T13:42:37;22.83;;;20.30;;
9208;SDS011;4639;48.862;9.188;2022-08-19T13:45:04;21.08;;;18.75;;
9208;SDS011;4639;48.862;9.188;2022-08-19T13:47:31;21.60;;;18.60;;
9208;SDS011;4639;48.862;9.188;2022-08-19T13:49:59;25.02;;;19.80;;
9208;SDS011;4639;48.862;9.188;2022-08-19T13:52:25;25.25;;;22.23;;
9208;SDS011;4639;48.862;9.188;2022-08-19T13:54:51;26.58;;;23.83;;
9208;SDS011;4639;48.862;9.188;2022-08-19T13:57:16;26.27;;;23.58;;
9208;SDS011;4639;48.862;9.188;2022-08-19T13:59:42;26.73;;;24.15;;
9208;SDS011;4639;48.862;9.188;2022-08-19T14:02:08;28.60;;;24.05;;
9208;SDS011;4639;48.862;9.188;2022-08-19T14:04:33;27.73;;;25.08;;
9208;SDS011;4639;48.862;9.188;2022-08-19T14:06:59;28.17;;;25.38;;
9208;SDS011;4639;48.862;9.188;2022-08-19T14:09:24;29.52;;;26.38;;
9208;SDS011;4639;48.862;9.188;2022-08-19T14:11:50;29.20;;;26.27;;
9208;SDS011;4639;48.862;9.188;2022-08-19T14:14:16;29.85;;;26.85;;
9208;SDS011;4639;48.862;9.188;2022-08-19T14:16:41;29.58;;;26.40;;
9208;SDS011;4639;48.862;9.188;2022-08-19T14:19:07;30.00;;;26.90;;
9208;SDS011;4639;48.862;9.188;2022-08-19T14:21:33;29.08;;;26.13;;
9208;SDS011;4639;48.862;9.188;2022-08-19T14:23:59;29.10;;;26.08;;
9208;SDS011;4639;48.862;9.188;2022-08-19T14:26:26;29.27;;;26.23;;
9208;SDS011;4639;48.862;9.188;2022-08-19T14:28:51;29.90;;;26.80;;
9208;SDS011;4639;48.862;9.188;2022-08-19T14:31:17;31.35;;;28.13;;
9208;SDS011;4639;48.862;9.188;2022-08-19T14:33:47;30.63;;;27.45;;
9208;SDS011;4639;48.862;9.188;2022-08-19T14:36:13;29.13;;;26.05;;
9208;SDS011;4639;48.862;9.188;2022-08-19T14:38:39;29.90;;;26.95;;
9208;SDS011;4639;48.862;9.188;2022-08-19T14:41:10;29.90;;;26.30;;
9208;SDS011;4639;48.862;9.188;2022-08-19T14:43:42;30.05;;;26.92;;
9208;SDS011;4639;48.862;9.188;2022-08-19T14:46:11;28.40;;;25.50;;
9208;SDS011;4639;48.862;9.188;2022-08-19T14:48:38;29.13;;;26.10;;
9208;SDS011;4639;48.862;9.188;2022-08-19T14:51:05;28.85;;;25.88;;
9208;SDS011;4639;48.862;9.188;2022-08-19T14:53:31;29.17;;;26.10;;
9208;SDS011;4639;48.862;9.188;2022-08-19T14:55:58;28.10;;;25.17;;
9208;SDS011;4639;48.862;9.188;2022-08-19T14:58:25;29.42;;;26.65;;
9208;SDS011;4639;48.862;9.188;2022-08-19T15:00:51;30.42;;;27.27;;
9208;SDS011;4639;48.862;9.188;2022-08-19T15:03:17;30.85;;;27.67;;
9208;SDS011;4639;48.862;9.188;2022-08-19T15:05:43;28.80;;;26.00;;
9208;SDS011;4639;48.862;9.188;2022-08-19T15:08:08;28.48;;;25.60;;
9208;SDS011;4639;48.862;9.188;2022-08-19T15:10:35;30.55;;;27.38;;